sensor_id;sensor_type;location;lat;lon;timestamp;P1;durP1;ratioP1;P2;durP2;ratioP2
703;SDS011;335;48.694;9.120;2023-06-22T00:00:18;11.03;;;10.23;;
703;SDS011;335;48.694;9.120;2023-06-22T00:02:44;11.17;;;10.37;;
703;SDS011;335;48.694;9.120;2023-06-22T00:05:09;11.77;;;10.60;;
703;SDS011;335;48.694;9.120;2023-06-22T00:07:35;10.50;;;9.60;;
703;SDS011;335;48.694;9.120;2023-06-22T00:10:00;10.93;;;10.03;;
703;SDS011;335;48.694;9.120;2023-06-22T00:12:25;11.43;;;10.53;;
703;SDS011;335;48.694;9.120;2023-06-22T00:14:51;10.83;;;9.97;;
703;SDS011;335;48.694;9.120;2023-06-22T00:17:16;10.73;;;9.87;;
703;SDS011;335;48.694;9.120;2023-06-22T00:19:41;12.03;;;11.10;;
703;SDS011;335;48.694;9.120;2023-06-22T00:22:07;10.77;;;10.03;;
703;SDS011;335;48.694;9.120;2023-06-22T00:24:33;11.33;;;10.33;;
703;SDS011;335;48.694;9.120;2023-06-22T00:26:58;11.60;;;10.40;;
703;SDS011;335;48.694;9.120;2023-06-22T00:29:23;11.30;;;10.40;;
703;SDS011;335;48.694;9.120;2023-06-22T00:31:49;12.23;;;11.33;;
703;SDS011;335;48.694;9.120;2023-06-22T00:34:14;11.30;;;10.27;;
703;SDS011;335;48.694;9.120;2023-06-22T00:36:40;12.03;;;10.93;;
703;SDS011;335;48.694;9.120;2023-06-22T00:39:06;11.30;;;10.40;;
703;SDS011;335;48.694;9.120;2023-06-22T00:41:32;11.50;;;10.50;;
703;SDS011;335;48.694;9.120;2023-06-22T00:43:57;12.40;;;11.13;;
703;SDS011;335;48.694;9.120;2023-06-22T00:46:23;13.07;;;11.83;;
703;SDS011;335;48.694;9.120;2023-06-22T00:48:49;12.70;;;11.60;;
703;SDS011;335;48.694;9.120;2023-06-22T00:51:15;12.93;;;11.53;;
703;SDS011;335;48.694;9.120;2023-06-22T00:53:41;12.83;;;11.77;;
703;SDS011;335;48.694;9.120;2023-06-22T00:56:08;11.40;;;10.50;;
703;SDS011;335;48.694;9.120;2023-06-22T00:58:34;12.87;;;11.60;;
703;SDS011;335;48.694;9.120;2023-06-22T01:01:01;11.10;;;10.20;;
703;SDS011;335;48.694;9.120;2023-06-22T01:03:27;11.47;;;10.47;;
703;SDS011;335;48.694;9.120;2023-06-22T01:05:52;11.93;;;11.00;;
703;SDS011;335;48.694;9.120;2023-06-22T01:08:33;11.97;;;10.97;;
703;SDS011;335;48.694;9.120;2023-06-22T01:11:10;12.80;;;11.70;;
703;SDS011;335;48.694;9.120;2023-06-22T01:14:02;11.20;;;10.20;;
703;SDS011;335;48.694;9.120;2023-06-22T01:16:35;12.00;;;10.77;;
703;SDS011;335;48.694;9.120;2023-06-22T01:19:27;12.30;;;11.07;;
703;SDS011;335;48.694;9.120;2023-06-22T01:22:04;13.73;;;12.50;;
703;SDS011;335;48.694;9.120;2023-06-22T01:24:47;12.50;;;11.40;;
703;SDS011;335;48.694;9.120;2023-06-22T01:27:31;13.47;;;12.17;;
703;SDS011;335;48.694;9.120;2023-06-22T01:30:00;13.40;;;12.30;;
703;SDS011;335;48.694;9.120;2023-06-22T01:32:31;12.77;;;11.53;;
703;SDS011;335;48.694;9.120;2023-06-22T01:34:58;12.30;;;11.20;;
703;SDS011;335;48.694;9.120;2023-06-22T01:37:25;12.33;;;11.33;;
703;SDS011;335;48.694;9.120;2023-06-22T01:39:51;13.10;;;11.80;;
703;SDS011;335;48.694;9.120;2023-06-22T01:42:17;12.80;;;11.70;;
703;SDS011;335;48.694;9.120;2023-06-22T01:44:43;13.60;;;12.60;;
703;SDS011;335;48.694;9.120;2023-06-22T01:47:09;13.60;;;12.30;;
703;SDS011;335;48.694;9.120;2023-06-22T01:49:35;13.27;;;11.97;;
703;SDS011;335;48.694;9.120;2023-06-22T01:52:00;12.80;;;11.70;;
703;SDS011;335;48.694;9.120;2023-06-22T01:54:25;13.20;;;12.10;;
703;SDS011;335;48.694;9.120;2023-06-22T01:56:51;12.63;;;11.60;;
703;SDS011;335;48.694;9.120;2023-06-22T02:01:58;12.30;;;11.23;;
703;SDS011;335;48.694;9.120;2023-06-22T02:04:27;12.93;;;11.83;;
703;SDS011;335;48.694;9.120;2023-06-22T02:06:55;14.10;;;12.80;;
703;SDS011;335;48.694;9.120;2023-06-22T02:09:22;13.27;;;12.27;;
703;SDS011;335;48.694;9.120;2023-06-22T02:11:48;13.40;;;12.30;;
703;SDS011;335;48.694;9.120;2023-06-22T02:14:18;13.67;;;11.90;;
703;SDS011;335;48.694;9.120;2023-06-22T02:16:44;14.47;;;12.97;;
703;SDS011;335;48.694;9.120;2023-06-22T02:19:09;12.73;;;11.53;;
703;SDS011;335;48.694;9.120;2023-06-22T02:21:35;12.80;;;11.70;;
703;SDS011;335;48.694;9.120;2023-06-22T02:24:00;11.87;;;10.87;;
703;SDS011;335;48.694;9.120;2023-06-22T02:26:25;12.00;;;10.97;;
703;SDS011;335;48.694;9.120;2023-06-22T02:28:51;11.73;;;10.83;;
703;SDS011;335;48.694;9.120;2023-06-22T02:31:17;11.87;;;10.60;;
703;SDS011;335;48.694;9.120;2023-06-22T02:33:43;11.23;;;10.27;;
703;SDS011;335;48.694;9.120;2023-06-22T02:36:09;11.67;;;10.77;;
703;SDS011;335;48.694;9.120;2023-06-22T02:38:38;12.90;;;11.70;;
703;SDS011;335;48.694;9.120;2023-06-22T02:41:04;11.83;;;10.73;;
703;SDS011;335;48.694;9.120;2023-06-22T02:43:29;12.27;;;11.27;;
703;SDS011;335;48.694;9.120;2023-06-22T02:45:55;14.03;;;11.33;;
703;SDS011;335;48.694;9.120;2023-06-22T02:48:20;13.17;;;12.07;;
703;SDS011;335;48.694;9.120;2023-06-22T02:50:45;13.87;;;12.47;;
703;SDS011;335;48.694;9.120;2023-06-22T02:53:11;13.30;;;12.10;;
703;SDS011;335;48.694;9.120;2023-06-22T02:55:36;12.30;;;11.17;;
703;SDS011;335;48.694;9.120;2023-06-22T02:58:01;17.17;;;12.07;;
703;SDS011;335;48.694;9.120;2023-06-22T03:00:30;13.57;;;12.40;;
703;SDS011;335;48.694;9.120;2023-06-22T03:02:55;12.10;;;10.90;;
703;SDS011;335;48.694;9.120;2023-06-22T03:05:22;12.07;;;11.07;;
703;SDS011;335;48.694;9.120;2023-06-22T03:07:47;11.77;;;10.87;;
703;SDS011;335;48.694;9.120;2023-06-22T03:10:13;13.40;;;12.40;;
703;SDS011;335;48.694;9.120;2023-06-22T03:12:39;13.17;;;12.07;;
703;SDS011;335;48.694;9.120;2023-06-22T03:15:06;13.47;;;12.20;;
703;SDS011;335;48.694;9.120;2023-06-22T03:17:33;15.20;;;12.73;;
703;SDS011;335;48.694;9.120;2023-06-22T03:19:59;14.93;;;13.73;;
703;SDS011;335;48.694;9.120;2023-06-22T03:22:24;15.13;;;13.73;;
703;SDS011;335;48.694;9.120;2023-06-22T03:24:49;14.17;;;13.00;;
703;SDS011;335;48.694;9.120;2023-06-22T03:27:15;13.23;;;12.13;;
703;SDS011;335;48.694;9.120;2023-06-22T03:29:40;12.43;;;11.27;;
703;SDS011;335;48.694;9.120;2023-06-22T03:32:05;14.13;;;12.93;;
703;SDS011;335;48.694;9.120;2023-06-22T03:34:31;14.37;;;13.17;;
703;SDS011;335;48.694;9.120;2023-06-22T03:36:59;13.33;;;12.10;;
703;SDS011;335;48.694;9.120;2023-06-22T03:39:24;14.80;;;13.30;;
703;SDS011;335;48.694;9.120;2023-06-22T03:41:49;14.47;;;13.27;;
703;SDS011;335;48.694;9.120;2023-06-22T03:44:15;13.30;;;12.10;;
703;SDS011;335;48.694;9.120;2023-06-22T03:46:40;13.37;;;12.20;;
703;SDS011;335;48.694;9.120;2023-06-22T03:49:06;13.13;;;12.03;;
703;SDS011;335;48.694;9.120;2023-06-22T03:51:32;14.37;;;13.10;;
703;SDS011;335;48.694;9.120;2023-06-22T03:53:57;12.97;;;11.77;;
703;SDS011;335;48.694;9.120;2023-06-22T03:56:23;14.00;;;12.80;;
703;SDS011;335;48.694;9.120;2023-06-22T03:58:48;12.13;;;11.20;;
703;SDS011;335;48.694;9.120;2023-06-22T04:01:13;13.07;;;11.97;;
703;SDS011;335;48.694;9.120;2023-06-22T04:03:39;14.37;;;12.57;;
703;SDS011;335;48.694;9.120;2023-06-22T04:06:05;13.60;;;12.53;;
703;SDS011;335;48.694;9.120;2023-06-22T04:08:31;14.97;;;13.60;;
703;SDS011;335;48.694;9.120;2023-06-22T04:10:56;14.60;;;13.23;;
703;SDS011;335;48.694;9.120;2023-06-22T04:13:21;12.57;;;11.47;;
703;SDS011;335;48.694;9.120;2023-06-22T04:15:47;13.30;;;12.30;;
703;SDS011;335;48.694;9.120;2023-06-22T04:18:12;14.00;;;12.80;;
703;SDS011;335;48.694;9.120;2023-06-22T04:20:38;13.03;;;11.93;;
703;SDS011;335;48.694;9.120;2023-06-22T04:23:03;12.83;;;11.70;;
703;SDS011;335;48.694;9.120;2023-06-22T04:25:29;13.53;;;12.20;;
703;SDS011;335;48.694;9.120;2023-06-22T04:27:54;13.00;;;11.77;;
703;SDS011;335;48.694;9.120;2023-06-22T04:30:19;12.83;;;11.73;;
703;SDS011;335;48.694;9.120;2023-06-22T04:32:45;13.00;;;11.90;;
703;SDS011;335;48.694;9.120;2023-06-22T04:35:10;14.63;;;12.57;;
703;SDS011;335;48.694;9.120;2023-06-22T04:37:36;14.20;;;13.10;;
703;SDS011;335;48.694;9.120;2023-06-22T04:40:01;14.67;;;13.47;;
703;SDS011;335;48.694;9.120;2023-06-22T04:42:29;13.00;;;12.00;;
703;SDS011;335;48.694;9.120;2023-06-22T04:44:55;13.87;;;12.20;;
703;SDS011;335;48.694;9.120;2023-06-22T04:47:20;12.30;;;11.20;;
703;SDS011;335;48.694;9.120;2023-06-22T04:49:46;12.50;;;11.30;;
703;SDS011;335;48.694;9.120;2023-06-22T04:52:12;13.10;;;12.00;;
703;SDS011;335;48.694;9.120;2023-06-22T04:54:38;11.40;;;10.50;;
703;SDS011;335;48.694;9.120;2023-06-22T04:57:05;11.90;;;10.80;;
703;SDS011;335;48.694;9.120;2023-06-22T04:59:36;10.37;;;9.37;;
703;SDS011;335;48.694;9.120;2023-06-22T05:02:03;12.50;;;11.20;;
703;SDS011;335;48.694;9.120;2023-06-22T05:04:29;10.90;;;9.90;;
703;SDS011;335;48.694;9.120;2023-06-22T05:06:56;9.97;;;9.03;;
703;SDS011;335;48.694;9.120;2023-06-22T05:09:22;10.53;;;9.43;;
703;SDS011;335;48.694;9.120;2023-06-22T05:11:47;10.10;;;9.30;;
703;SDS011;335;48.694;9.120;2023-06-22T05:14:12;10.40;;;9.30;;
703;SDS011;335;48.694;9.120;2023-06-22T05:16:38;9.77;;;9.07;;
703;SDS011;335;48.694;9.120;2023-06-22T05:19:04;9.50;;;8.53;;
703;SDS011;335;48.694;9.120;2023-06-22T05:21:29;8.40;;;7.63;;
703;SDS011;335;48.694;9.120;2023-06-22T05:23:56;9.83;;;8.50;;
703;SDS011;335;48.694;9.120;2023-06-22T05:26:25;8.70;;;8.00;;
703;SDS011;335;48.694;9.120;2023-06-22T05:28:51;8.17;;;7.50;;
703;SDS011;335;48.694;9.120;2023-06-22T05:31:16;8.17;;;7.50;;
703;SDS011;335;48.694;9.120;2023-06-22T05:33:42;9.07;;;8.27;;
703;SDS011;335;48.694;9.120;2023-06-22T05:36:08;9.20;;;8.40;;
703;SDS011;335;48.694;9.120;2023-06-22T05:38:35;8.97;;;8.10;;
703;SDS011;335;48.694;9.120;2023-06-22T05:41:01;8.57;;;7.67;;
703;SDS011;335;48.694;9.120;2023-06-22T05:43:26;8.50;;;7.77;;
703;SDS011;335;48.694;9.120;2023-06-22T05:45:52;8.47;;;7.63;;
703;SDS011;335;48.694;9.120;2023-06-22T05:48:17;7.87;;;7.20;;
703;SDS011;335;48.694;9.120;2023-06-22T05:50:42;8.87;;;7.97;;
703;SDS011;335;48.694;9.120;2023-06-22T05:53:08;8.80;;;7.90;;
703;SDS011;335;48.694;9.120;2023-06-22T05:55:33;7.80;;;7.13;;
703;SDS011;335;48.694;9.120;2023-06-22T05:57:58;7.87;;;7.20;;
703;SDS011;335;48.694;9.120;2023-06-22T06:00:24;6.67;;;6.17;;
703;SDS011;335;48.694;9.120;2023-06-22T06:02:49;8.03;;;7.37;;
703;SDS011;335;48.694;9.120;2023-06-22T06:05:15;8.27;;;6.83;;
703;SDS011;335;48.694;9.120;2023-06-22T06:07:41;9.17;;;8.40;;
703;SDS011;335;48.694;9.120;2023-06-22T06:10:07;7.50;;;6.83;;
703;SDS011;335;48.694;9.120;2023-06-22T06:12:32;7.33;;;6.63;;
703;SDS011;335;48.694;9.120;2023-06-22T06:14:58;8.47;;;6.63;;
703;SDS011;335;48.694;9.120;2023-06-22T06:17:23;6.97;;;6.37;;
703;SDS011;335;48.694;9.120;2023-06-22T06:19:48;6.90;;;6.27;;
703;SDS011;335;48.694;9.120;2023-06-22T06:22:14;6.17;;;5.67;;
703;SDS011;335;48.694;9.120;2023-06-22T06:24:39;7.00;;;6.40;;
703;SDS011;335;48.694;9.120;2023-06-22T06:27:04;6.70;;;6.10;;
703;SDS011;335;48.694;9.120;2023-06-22T06:29:30;6.03;;;5.60;;
703;SDS011;335;48.694;9.120;2023-06-22T06:31:56;6.27;;;5.87;;
703;SDS011;335;48.694;9.120;2023-06-22T06:34:22;7.80;;;6.80;;
703;SDS011;335;48.694;9.120;2023-06-22T06:36:47;7.73;;;6.80;;
703;SDS011;335;48.694;9.120;2023-06-22T06:39:12;8.73;;;7.03;;
703;SDS011;335;48.694;9.120;2023-06-22T06:41:38;9.67;;;7.00;;
703;SDS011;335;48.694;9.120;2023-06-22T06:44:03;7.13;;;6.47;;
703;SDS011;335;48.694;9.120;2023-06-22T06:46:29;7.30;;;6.00;;
703;SDS011;335;48.694;9.120;2023-06-22T06:48:54;7.33;;;6.63;;
703;SDS011;335;48.694;9.120;2023-06-22T06:51:19;6.17;;;5.73;;
703;SDS011;335;48.694;9.120;2023-06-22T06:53:45;6.87;;;6.30;;
703;SDS011;335;48.694;9.120;2023-06-22T06:56:10;7.60;;;6.90;;
703;SDS011;335;48.694;9.120;2023-06-22T06:58:35;6.27;;;5.70;;
703;SDS011;335;48.694;9.120;2023-06-22T07:01:01;6.93;;;6.33;;
703;SDS011;335;48.694;9.120;2023-06-22T07:03:28;7.53;;;5.83;;
703;SDS011;335;48.694;9.120;2023-06-22T07:05:53;6.30;;;5.70;;
703;SDS011;335;48.694;9.120;2023-06-22T07:08:18;6.60;;;6.10;;
703;SDS011;335;48.694;9.120;2023-06-22T07:10:44;6.10;;;5.60;;
703;SDS011;335;48.694;9.120;2023-06-22T07:13:09;7.17;;;6.07;;
703;SDS011;335;48.694;9.120;2023-06-22T07:15:34;9.33;;;5.97;;
703;SDS011;335;48.694;9.120;2023-06-22T07:18:00;6.90;;;5.60;;
703;SDS011;335;48.694;9.120;2023-06-22T07:20:25;5.70;;;5.20;;
703;SDS011;335;48.694;9.120;2023-06-22T07:22:51;6.23;;;5.73;;
703;SDS011;335;48.694;9.120;2023-06-22T07:25:16;7.70;;;6.07;;
703;SDS011;335;48.694;9.120;2023-06-22T07:30:24;5.53;;;5.13;;
703;SDS011;335;48.694;9.120;2023-06-22T07:32:50;5.60;;;5.10;;
703;SDS011;335;48.694;9.120;2023-06-22T07:35:15;5.47;;;5.07;;
703;SDS011;335;48.694;9.120;2023-06-22T07:37:41;6.47;;;5.87;;
703;SDS011;335;48.694;9.120;2023-06-22T07:40:07;5.73;;;5.23;;
703;SDS011;335;48.694;9.120;2023-06-22T07:42:33;4.97;;;4.53;;
703;SDS011;335;48.694;9.120;2023-06-22T07:44:58;5.80;;;5.30;;
703;SDS011;335;48.694;9.120;2023-06-22T07:47:23;5.30;;;4.90;;
703;SDS011;335;48.694;9.120;2023-06-22T07:49:51;5.63;;;5.10;;
703;SDS011;335;48.694;9.120;2023-06-22T07:52:17;5.90;;;5.33;;
703;SDS011;335;48.694;9.120;2023-06-22T07:54:42;6.10;;;5.60;;
703;SDS011;335;48.694;9.120;2023-06-22T07:57:07;5.97;;;5.47;;
703;SDS011;335;48.694;9.120;2023-06-22T07:59:33;6.50;;;6.00;;
703;SDS011;335;48.694;9.120;2023-06-22T08:01:58;5.33;;;4.90;;
703;SDS011;335;48.694;9.120;2023-06-22T08:04:23;9.93;;;5.00;;
703;SDS011;335;48.694;9.120;2023-06-22T08:06:49;5.00;;;4.60;;
703;SDS011;335;48.694;9.120;2023-06-22T08:09:14;6.90;;;5.03;;
703;SDS011;335;48.694;9.120;2023-06-22T08:11:40;5.20;;;4.77;;
703;SDS011;335;48.694;9.120;2023-06-22T08:14:05;6.43;;;4.47;;
703;SDS011;335;48.694;9.120;2023-06-22T08:16:30;5.37;;;4.87;;
703;SDS011;335;48.694;9.120;2023-06-22T08:18:56;4.50;;;4.20;;
703;SDS011;335;48.694;9.120;2023-06-22T08:21:21;6.27;;;4.97;;
703;SDS011;335;48.694;9.120;2023-06-22T08:23:47;5.50;;;4.63;;
703;SDS011;335;48.694;9.120;2023-06-22T08:26:13;6.10;;;5.47;;
703;SDS011;335;48.694;9.120;2023-06-22T08:28:39;4.90;;;4.50;;
703;SDS011;335;48.694;9.120;2023-06-22T08:31:04;8.43;;;6.37;;
703;SDS011;335;48.694;9.120;2023-06-22T08:33:30;5.17;;;4.77;;
703;SDS011;335;48.694;9.120;2023-06-22T08:35:56;6.20;;;5.70;;
703;SDS011;335;48.694;9.120;2023-06-22T08:38:21;7.60;;;5.37;;
703;SDS011;335;48.694;9.120;2023-06-22T08:40:46;5.10;;;4.60;;
703;SDS011;335;48.694;9.120;2023-06-22T08:43:12;5.80;;;5.30;;
703;SDS011;335;48.694;9.120;2023-06-22T08:45:37;4.50;;;4.20;;
703;SDS011;335;48.694;9.120;2023-06-22T08:48:02;8.03;;;5.03;;
703;SDS011;335;48.694;9.120;2023-06-22T08:50:28;5.57;;;5.13;;
703;SDS011;335;48.694;9.120;2023-06-22T08:52:53;5.40;;;4.97;;
703;SDS011;335;48.694;9.120;2023-06-22T08:55:18;5.90;;;5.13;;
703;SDS011;335;48.694;9.120;2023-06-22T08:57:44;5.50;;;5.00;;
703;SDS011;335;48.694;9.120;2023-06-22T09:00:09;5.90;;;5.40;;
703;SDS011;335;48.694;9.120;2023-06-22T09:02:48;10.83;;;5.33;;
703;SDS011;335;48.694;9.120;2023-06-22T09:05:13;8.17;;;5.13;;
703;SDS011;335;48.694;9.120;2023-06-22T09:07:39;5.80;;;5.20;;
703;SDS011;335;48.694;9.120;2023-06-22T09:10:05;5.63;;;5.13;;
703;SDS011;335;48.694;9.120;2023-06-22T09:12:31;5.40;;;5.10;;
703;SDS011;335;48.694;9.120;2023-06-22T09:14:57;10.07;;;5.50;;
703;SDS011;335;48.694;9.120;2023-06-22T09:17:24;6.23;;;5.50;;
703;SDS011;335;48.694;9.120;2023-06-22T09:19:50;6.20;;;5.60;;
703;SDS011;335;48.694;9.120;2023-06-22T09:22:15;5.77;;;5.10;;
703;SDS011;335;48.694;9.120;2023-06-22T09:24:40;5.37;;;4.87;;
703;SDS011;335;48.694;9.120;2023-06-22T09:27:06;4.60;;;4.30;;
703;SDS011;335;48.694;9.120;2023-06-22T09:29:32;4.70;;;4.37;;
703;SDS011;335;48.694;9.120;2023-06-22T09:31:58;6.23;;;5.63;;
703;SDS011;335;48.694;9.120;2023-06-22T09:34:24;6.30;;;5.43;;
703;SDS011;335;48.694;9.120;2023-06-22T09:36:50;7.70;;;5.20;;
703;SDS011;335;48.694;9.120;2023-06-22T09:39:15;7.47;;;5.20;;
703;SDS011;335;48.694;9.120;2023-06-22T09:41:40;5.43;;;4.93;;
703;SDS011;335;48.694;9.120;2023-06-22T09:44:06;6.70;;;5.60;;
703;SDS011;335;48.694;9.120;2023-06-22T09:46:31;12.63;;;5.67;;
703;SDS011;335;48.694;9.120;2023-06-22T09:48:56;5.73;;;5.07;;
703;SDS011;335;48.694;9.120;2023-06-22T09:51:22;7.27;;;5.30;;
703;SDS011;335;48.694;9.120;2023-06-22T09:53:48;6.00;;;4.67;;
703;SDS011;335;48.694;9.120;2023-06-22T09:56:18;6.00;;;5.33;;
703;SDS011;335;48.694;9.120;2023-06-22T09:58:44;5.30;;;4.90;;
703;SDS011;335;48.694;9.120;2023-06-22T10:01:10;5.70;;;4.50;;
703;SDS011;335;48.694;9.120;2023-06-22T10:03:35;7.30;;;5.73;;
703;SDS011;335;48.694;9.120;2023-06-22T10:06:01;5.23;;;4.83;;
703;SDS011;335;48.694;9.120;2023-06-22T10:08:27;6.30;;;5.30;;
703;SDS011;335;48.694;9.120;2023-06-22T10:10:52;5.80;;;4.70;;
703;SDS011;335;48.694;9.120;2023-06-22T10:13:18;11.23;;;6.30;;
703;SDS011;335;48.694;9.120;2023-06-22T10:15:43;7.40;;;5.50;;
703;SDS011;335;48.694;9.120;2023-06-22T10:18:14;6.00;;;5.50;;
703;SDS011;335;48.694;9.120;2023-06-22T10:20:39;6.27;;;5.70;;
703;SDS011;335;48.694;9.120;2023-06-22T10:23:05;5.33;;;4.83;;
703;SDS011;335;48.694;9.120;2023-06-22T10:25:30;7.10;;;4.50;;
703;SDS011;335;48.694;9.120;2023-06-22T10:27:55;5.43;;;4.90;;
703;SDS011;335;48.694;9.120;2023-06-22T10:30:21;5.80;;;5.30;;
703;SDS011;335;48.694;9.120;2023-06-22T10:32:46;5.57;;;5.03;;
703;SDS011;335;48.694;9.120;2023-06-22T10:35:12;5.63;;;4.70;;
703;SDS011;335;48.694;9.120;2023-06-22T10:37:38;7.10;;;4.67;;
703;SDS011;335;48.694;9.120;2023-06-22T10:40:04;5.37;;;4.87;;
703;SDS011;335;48.694;9.120;2023-06-22T10:42:30;5.60;;;4.90;;
703;SDS011;335;48.694;9.120;2023-06-22T10:44:56;8.47;;;5.30;;
703;SDS011;335;48.694;9.120;2023-06-22T10:47:21;9.30;;;5.87;;
703;SDS011;335;48.694;9.120;2023-06-22T10:49:46;5.17;;;4.80;;
703;SDS011;335;48.694;9.120;2023-06-22T10:52:12;6.20;;;5.10;;
703;SDS011;335;48.694;9.120;2023-06-22T10:54:37;6.20;;;5.40;;
703;SDS011;335;48.694;9.120;2023-06-22T10:57:03;5.93;;;5.30;;
703;SDS011;335;48.694;9.120;2023-06-22T10:59:28;5.63;;;5.13;;
703;SDS011;335;48.694;9.120;2023-06-22T11:01:57;5.70;;;4.70;;
703;SDS011;335;48.694;9.120;2023-06-22T11:04:23;7.13;;;4.70;;
703;SDS011;335;48.694;9.120;2023-06-22T11:06:48;10.30;;;6.13;;
703;SDS011;335;48.694;9.120;2023-06-22T11:09:14;5.77;;;5.33;;
703;SDS011;335;48.694;9.120;2023-06-22T11:11:44;6.00;;;5.40;;
703;SDS011;335;48.694;9.120;2023-06-22T11:14:09;6.03;;;5.27;;
703;SDS011;335;48.694;9.120;2023-06-22T11:16:35;7.10;;;6.03;;
703;SDS011;335;48.694;9.120;2023-06-22T11:19:00;9.63;;;5.80;;
703;SDS011;335;48.694;9.120;2023-06-22T11:21:25;5.37;;;4.97;;
703;SDS011;335;48.694;9.120;2023-06-22T11:23:51;6.63;;;5.80;;
703;SDS011;335;48.694;9.120;2023-06-22T11:26:16;8.37;;;6.90;;
703;SDS011;335;48.694;9.120;2023-06-22T11:28:41;11.93;;;6.70;;
703;SDS011;335;48.694;9.120;2023-06-22T11:31:07;7.10;;;6.40;;
703;SDS011;335;48.694;9.120;2023-06-22T11:33:32;9.60;;;7.07;;
703;SDS011;335;48.694;9.120;2023-06-22T11:35:57;9.10;;;6.77;;
703;SDS011;335;48.694;9.120;2023-06-22T11:38:23;7.00;;;6.30;;
703;SDS011;335;48.694;9.120;2023-06-22T11:40:48;6.00;;;5.10;;
703;SDS011;335;48.694;9.120;2023-06-22T11:43:13;5.73;;;5.03;;
703;SDS011;335;48.694;9.120;2023-06-22T11:45:40;7.13;;;6.43;;
703;SDS011;335;48.694;9.120;2023-06-22T11:48:05;6.23;;;5.63;;
703;SDS011;335;48.694;9.120;2023-06-22T11:50:30;8.30;;;5.93;;
703;SDS011;335;48.694;9.120;2023-06-22T11:53:00;6.03;;;5.60;;
703;SDS011;335;48.694;9.120;2023-06-22T11:55:26;7.23;;;5.50;;
703;SDS011;335;48.694;9.120;2023-06-22T11:57:53;5.90;;;5.40;;
703;SDS011;335;48.694;9.120;2023-06-22T12:00:24;9.00;;;6.17;;
703;SDS011;335;48.694;9.120;2023-06-22T12:02:50;6.20;;;5.43;;
703;SDS011;335;48.694;9.120;2023-06-22T12:05:19;6.70;;;5.47;;
703;SDS011;335;48.694;9.120;2023-06-22T12:07:49;5.70;;;5.20;;
703;SDS011;335;48.694;9.120;2023-06-22T12:10:14;6.77;;;6.17;;
703;SDS011;335;48.694;9.120;2023-06-22T12:12:41;6.27;;;5.67;;
703;SDS011;335;48.694;9.120;2023-06-22T12:15:07;7.63;;;7.03;;
703;SDS011;335;48.694;9.120;2023-06-22T12:17:34;7.20;;;6.60;;
703;SDS011;335;48.694;9.120;2023-06-22T12:19:59;6.90;;;6.40;;
703;SDS011;335;48.694;9.120;2023-06-22T12:22:25;8.20;;;7.40;;
703;SDS011;335;48.694;9.120;2023-06-22T12:24:50;7.27;;;6.70;;
703;SDS011;335;48.694;9.120;2023-06-22T12:27:16;7.57;;;6.67;;
703;SDS011;335;48.694;9.120;2023-06-22T12:29:43;9.17;;;6.70;;
703;SDS011;335;48.694;9.120;2023-06-22T12:32:08;7.20;;;6.50;;
703;SDS011;335;48.694;9.120;2023-06-22T12:34:33;6.03;;;5.47;;
703;SDS011;335;48.694;9.120;2023-06-22T12:36:59;7.30;;;6.27;;
703;SDS011;335;48.694;9.120;2023-06-22T12:39:24;6.50;;;5.93;;
703;SDS011;335;48.694;9.120;2023-06-22T12:41:49;8.33;;;6.07;;
703;SDS011;335;48.694;9.120;2023-06-22T12:44:15;6.70;;;6.10;;
703;SDS011;335;48.694;9.120;2023-06-22T12:46:40;7.63;;;5.67;;
703;SDS011;335;48.694;9.120;2023-06-22T12:49:05;7.60;;;6.13;;
703;SDS011;335;48.694;9.120;2023-06-22T12:51:31;7.37;;;6.37;;
703;SDS011;335;48.694;9.120;2023-06-22T12:53:56;8.57;;;5.90;;
703;SDS011;335;48.694;9.120;2023-06-22T12:56:22;7.53;;;6.87;;
703;SDS011;335;48.694;9.120;2023-06-22T12:58:47;9.00;;;6.63;;
703;SDS011;335;48.694;9.120;2023-06-22T13:01:13;7.23;;;5.90;;
703;SDS011;335;48.694;9.120;2023-06-22T13:03:38;6.30;;;5.73;;
703;SDS011;335;48.694;9.120;2023-06-22T13:06:03;7.00;;;6.30;;
703;SDS011;335;48.694;9.120;2023-06-22T13:08:29;7.30;;;6.07;;
703;SDS011;335;48.694;9.120;2023-06-22T13:10:54;8.63;;;7.03;;
703;SDS011;335;48.694;9.120;2023-06-22T13:13:23;7.10;;;5.80;;
703;SDS011;335;48.694;9.120;2023-06-22T13:15:49;6.00;;;5.50;;
703;SDS011;335;48.694;9.120;2023-06-22T13:18:15;9.83;;;5.90;;
703;SDS011;335;48.694;9.120;2023-06-22T13:20:40;6.63;;;5.57;;
703;SDS011;335;48.694;9.120;2023-06-22T13:23:05;5.70;;;5.20;;
703;SDS011;335;48.694;9.120;2023-06-22T13:25:31;7.37;;;6.07;;
703;SDS011;335;48.694;9.120;2023-06-22T13:27:56;6.80;;;6.10;;
703;SDS011;335;48.694;9.120;2023-06-22T13:30:21;7.23;;;6.33;;
703;SDS011;335;48.694;9.120;2023-06-22T13:32:47;6.07;;;5.30;;
703;SDS011;335;48.694;9.120;2023-06-22T13:35:12;6.10;;;5.50;;
703;SDS011;335;48.694;9.120;2023-06-22T13:37:37;8.87;;;5.50;;
703;SDS011;335;48.694;9.120;2023-06-22T13:40:04;10.07;;;6.23;;
703;SDS011;335;48.694;9.120;2023-06-22T13:42:31;6.43;;;5.83;;
703;SDS011;335;48.694;9.120;2023-06-22T13:44:57;6.97;;;6.27;;
703;SDS011;335;48.694;9.120;2023-06-22T13:47:22;8.50;;;6.20;;
703;SDS011;335;48.694;9.120;2023-06-22T13:49:48;6.90;;;5.43;;
703;SDS011;335;48.694;9.120;2023-06-22T13:52:13;6.70;;;5.90;;
703;SDS011;335;48.694;9.120;2023-06-22T13:54:39;8.07;;;6.23;;
703;SDS011;335;48.694;9.120;2023-06-22T13:57:04;7.97;;;5.20;;
703;SDS011;335;48.694;9.120;2023-06-22T13:59:30;9.10;;;5.80;;
703;SDS011;335;48.694;9.120;2023-06-22T14:01:55;7.33;;;5.60;;
703;SDS011;335;48.694;9.120;2023-06-22T14:04:21;6.27;;;5.77;;
703;SDS011;335;48.694;9.120;2023-06-22T14:06:48;8.03;;;5.70;;
703;SDS011;335;48.694;9.120;2023-06-22T14:09:13;9.57;;;6.20;;
703;SDS011;335;48.694;9.120;2023-06-22T14:11:38;5.73;;;5.17;;
703;SDS011;335;48.694;9.120;2023-06-22T14:14:03;7.17;;;6.30;;
703;SDS011;335;48.694;9.120;2023-06-22T14:16:29;6.70;;;5.90;;
703;SDS011;335;48.694;9.120;2023-06-22T14:18:54;10.87;;;6.33;;
703;SDS011;335;48.694;9.120;2023-06-22T14:21:19;7.27;;;5.33;;
703;SDS011;335;48.694;9.120;2023-06-22T14:23:45;7.33;;;5.53;;
703;SDS011;335;48.694;9.120;2023-06-22T14:26:14;11.43;;;5.53;;
703;SDS011;335;48.694;9.120;2023-06-22T14:28:43;7.43;;;4.97;;
703;SDS011;335;48.694;9.120;2023-06-22T14:31:16;5.50;;;4.93;;
703;SDS011;335;48.694;9.120;2023-06-22T14:33:46;10.03;;;4.67;;
703;SDS011;335;48.694;9.120;2023-06-22T14:36:13;5.63;;;4.17;;
703;SDS011;335;48.694;9.120;2023-06-22T14:38:38;10.40;;;4.43;;
703;SDS011;335;48.694;9.120;2023-06-22T14:41:04;6.90;;;4.10;;
703;SDS011;335;48.694;9.120;2023-06-22T14:43:29;9.70;;;4.80;;
703;SDS011;335;48.694;9.120;2023-06-22T14:45:54;5.30;;;4.30;;
703;SDS011;335;48.694;9.120;2023-06-22T14:48:20;8.23;;;3.80;;
703;SDS011;335;48.694;9.120;2023-06-22T14:50:45;7.17;;;4.03;;
703;SDS011;335;48.694;9.120;2023-06-22T14:53:10;9.80;;;3.13;;
703;SDS011;335;48.694;9.120;2023-06-22T14:55:36;7.47;;;3.87;;
703;SDS011;335;48.694;9.120;2023-06-22T14:58:01;7.17;;;3.63;;
703;SDS011;335;48.694;9.120;2023-06-22T15:00:26;7.10;;;3.67;;
703;SDS011;335;48.694;9.120;2023-06-22T15:02:52;8.30;;;3.67;;
703;SDS011;335;48.694;9.120;2023-06-22T15:05:17;7.87;;;3.60;;
703;SDS011;335;48.694;9.120;2023-06-22T15:07:42;8.93;;;3.80;;
703;SDS011;335;48.694;9.120;2023-06-22T15:10:08;6.90;;;3.20;;
703;SDS011;335;48.694;9.120;2023-06-22T15:12:34;9.23;;;3.90;;
703;SDS011;335;48.694;9.120;2023-06-22T15:14:59;5.43;;;3.90;;
703;SDS011;335;48.694;9.120;2023-06-22T15:17:24;6.60;;;3.33;;
703;SDS011;335;48.694;9.120;2023-06-22T15:19:54;8.30;;;3.43;;
703;SDS011;335;48.694;9.120;2023-06-22T15:22:19;6.63;;;3.40;;
703;SDS011;335;48.694;9.120;2023-06-22T15:24:45;7.67;;;3.53;;
703;SDS011;335;48.694;9.120;2023-06-22T15:27:10;8.23;;;3.23;;
703;SDS011;335;48.694;9.120;2023-06-22T15:29:36;5.83;;;3.60;;
703;SDS011;335;48.694;9.120;2023-06-22T15:32:01;5.60;;;3.30;;